GADA weather

Dioila Airport
Dioila, Koulikoro Region, Mali

Public forecast

Using degrees Celsius for public forecast. Weather courtesy of forecast.io.

Closest aviation weather report (METAR) to Dioila Airport

Closest report is Modibo Keita International Airport, 67.3 nm (124.7 km) W. Retrieved 2020/01/29 04:00 UTC (18 minutes ago):

GABS 290400Z 06001KT 8000 NSC 14/M02 Q1015 NOSIG

Closest aviation forecast (TAF) to Dioila Airport

Closest forecast is Modibo Keita International Airport, 67.3 nm (124.7 km) W. Retrieved 2020-01-29 00:00 UTC (4 hours ago):

TAF GABS 282300Z 2900/3006 06010G20KT 8000 NSC PROB40 TEMPO 2906/2912 4000 DU